Time;durP1;ratioP1;P1;durP2;ratioP2;P2;SDS_P1;SDS_P2;PMS_P1;PMS_P2;Temp;Humidity;BMP_temperature;BMP_pressure;BME280_temperature;BME280_humidity;BME280_pressure;Samples;Min_cycle;Max_cycle;Signal;HPM_P1;HPM_P2
2023/11/12 00:00:02;;;;;;;3.95;1.40;;;;;;;7.65;58.46;94382.63;5027553;28;20014;-76
2023/11/12 00:02:28;;;;;;;1.02;0.80;;;;;;;7.62;58.69;94380.75;5041879;28;20032;-76
2023/11/12 00:04:54;;;;;;;2.60;1.17;;;;;;;7.49;58.72;94377.19;5015079;28;20034;-74
2023/11/12 00:07:20;;;;;;;2.22;1.10;;;;;;;7.57;58.51;94385.97;5018254;28;20550;-76
2023/11/12 00:09:45;;;;;;;2.28;1.00;;;;;;;7.53;58.82;94386.06;5056000;28;20028;-75
2023/11/12 00:12:10;;;;;;;2.22;1.42;;;;;;;7.59;58.68;94381.63;5038999;28;20044;-76
2023/11/12 00:14:40;;;;;;;2.38;1.48;;;;;;;7.56;58.53;94387.16;5040616;28;20038;-76
2023/11/12 00:17:05;;;;;;;1.42;1.00;;;;;;;7.52;58.63;94390.00;5026844;28;20079;-74
2023/11/12 00:19:32;;;;;;;1.30;0.98;;;;;;;7.43;58.80;94398.81;5007692;28;20037;-74
2023/11/12 00:21:58;;;;;;;2.38;1.10;;;;;;;7.50;58.60;94391.63;5007059;28;20113;-75
2023/11/12 00:24:24;;;;;;;2.25;0.85;;;;;;;7.52;58.42;94383.78;5006780;28;20129;-75
2023/11/12 00:26:49;;;;;;;1.20;0.80;;;;;;;7.45;58.73;94390.97;5015122;28;20080;-75
2023/11/12 00:29:14;;;;;;;1.75;1.10;;;;;;;7.47;58.65;94393.25;5007288;28;20412;-75
2023/11/12 00:31:40;;;;;;;1.27;0.90;;;;;;;7.44;58.97;94391.38;5026058;28;20037;-76
2023/11/12 00:34:05;;;;;;;1.63;1.15;;;;;;;7.48;58.56;94383.09;5020882;28;20029;-75
2023/11/12 00:36:31;;;;;;;1.40;1.02;;;;;;;7.36;58.94;94381.81;5005529;28;20564;-75
2023/11/12 00:38:57;;;;;;;1.92;1.05;;;;;;;7.26;59.03;94391.06;5038475;28;20491;-75
2023/11/12 00:41:22;;;;;;;1.30;1.00;;;;;;;7.29;59.27;94382.78;5022943;28;20025;-75
2023/11/12 00:43:48;;;;;;;1.50;0.88;;;;;;;7.39;59.00;94383.69;5046692;28;20037;-75
2023/11/12 00:46:14;;;;;;;1.02;0.90;;;;;;;7.39;59.01;94373.50;5037298;28;20028;-75
2023/11/12 00:48:39;;;;;;;2.10;1.00;;;;;;;7.42;59.06;94382.84;5041741;28;20017;-74
2023/11/12 00:51:04;;;;;;;2.65;1.23;;;;;;;7.35;59.05;94381.06;5026779;28;20034;-75
2023/11/12 00:53:30;;;;;;;1.30;0.90;;;;;;;7.41;58.92;94378.56;5041199;28;20087;-75
2023/11/12 00:55:59;;;;;;;2.00;1.85;;;;;;;7.33;59.16;94372.50;5021573;28;20026;-75
2023/11/12 00:58:28;;;;;;;1.13;0.88;;;;;;;7.32;59.42;94370.19;5006026;28;20049;-75
2023/11/12 01:00:53;;;;;;;3.63;1.10;;;;;;;7.29;59.37;94371.06;5007957;28;20030;-75
2023/11/12 01:03:18;;;;;;;2.88;1.27;;;;;;;7.30;59.71;94367.13;5013056;28;20083;-75
2023/11/12 01:05:44;;;;;;;1.80;1.08;;;;;;;7.24;59.79;94366.88;5010575;28;20029;-75
2023/11/12 01:08:10;;;;;;;1.13;0.90;;;;;;;7.23;59.88;94361.84;5016210;28;20044;-75
2023/11/12 01:10:35;;;;;;;1.25;1.05;;;;;;;7.26;59.91;94361.75;5040444;28;20549;-75
2023/11/12 01:13:01;;;;;;;1.67;1.23;;;;;;;7.23;59.64;94364.59;5017867;28;20041;-75
2023/11/12 01:15:27;;;;;;;2.53;1.48;;;;;;;7.15;59.76;94359.28;5017601;28;20026;-75
2023/11/12 01:17:53;;;;;;;6.25;2.35;;;;;;;7.18;59.88;94365.88;5020605;28;20037;-75
2023/11/12 01:20:18;;;;;;;2.53;1.25;;;;;;;7.24;59.80;94371.59;5022305;28;20099;-75
2023/11/12 01:22:43;;;;;;;2.50;1.25;;;;;;;7.26;59.67;94366.44;5006469;28;20034;-76
2023/11/12 01:25:09;;;;;;;2.28;1.10;;;;;;;7.23;59.54;94370.81;5010122;28;20033;-75
2023/11/12 01:27:34;;;;;;;2.53;1.25;;;;;;;7.23;59.37;94361.84;5015432;28;20034;-75
2023/11/12 01:30:00;;;;;;;7.07;2.28;;;;;;;7.24;59.50;94369.63;5040646;28;20033;-75
2023/11/12 01:32:26;;;;;;;2.20;1.27;;;;;;;7.23;59.40;94359.13;5024165;28;20440;-74
2023/11/12 01:34:51;;;;;;;1.42;1.20;;;;;;;7.16;59.69;94360.03;5039657;28;20051;-75
2023/11/12 01:37:17;;;;;;;0.90;0.75;;;;;;;7.10;59.57;94357.06;5007446;28;20030;-75
2023/11/12 01:39:42;;;;;;;1.50;0.95;;;;;;;7.00;59.41;94349.16;5024263;28;20504;-74
2023/11/12 01:42:11;;;;;;;1.02;0.88;;;;;;;7.03;59.87;94351.00;5036125;28;20500;-75
2023/11/12 01:44:37;;;;;;;1.30;0.90;;;;;;;7.04;59.73;94352.53;5042546;28;20074;-76
2023/11/12 01:47:04;;;;;;;2.85;1.85;;;;;;;7.02;59.90;94349.47;5011050;28;20030;-76
2023/11/12 01:49:31;;;;;;;0.95;0.73;;;;;;;6.95;59.93;94342.22;5038413;28;20030;-75
2023/11/12 01:51:57;;;;;;;1.30;0.73;;;;;;;7.11;59.69;94349.63;5024703;28;20126;-75
2023/11/12 01:54:23;;;;;;;1.20;1.00;;;;;;;7.11;59.37;94350.41;5017483;28;20076;-76
2023/11/12 01:56:55;;;;;;;1.42;0.70;;;;;;;7.05;59.46;94352.09;5037091;28;20018;-76
2023/11/12 01:59:20;;;;;;;2.40;1.30;;;;;;;7.06;59.52;94355.63;5039604;28;20122;-76
2023/11/12 02:01:45;;;;;;;2.08;0.80;;;;;;;7.09;59.25;94352.78;5024927;28;20029;-76
2023/11/12 02:04:11;;;;;;;2.08;1.13;;;;;;;7.08;59.13;94354.00;5040381;28;20437;-76
2023/11/12 02:06:37;;;;;;;1.20;0.77;;;;;;;6.98;59.43;94363.22;5040051;28;20045;-76
2023/11/12 02:09:02;;;;;;;1.08;0.80;;;;;;;7.04;59.17;94355.28;5035126;28;20428;-75
2023/11/12 02:11:28;;;;;;;1.13;0.80;;;;;;;6.93;59.48;94356.28;5038842;28;20036;-75
2023/11/12 02:13:54;;;;;;;1.92;0.85;;;;;;;6.89;59.59;94354.88;5033655;28;20022;-75
2023/11/12 02:16:20;;;;;;;1.00;0.90;;;;;;;6.90;59.71;94359.13;5018178;28;20549;-75
2023/11/12 02:18:46;;;;;;;2.35;1.08;;;;;;;6.89;59.54;94352.13;5023438;28;20165;-75
2023/11/12 02:21:11;;;;;;;1.80;0.77;;;;;;;6.86;59.78;94356.47;5011219;28;20501;-75
2023/11/12 02:23:38;;;;;;;1.70;1.00;;;;;;;6.83;59.53;94359.31;5017428;28;20040;-75
2023/11/12 02:26:04;;;;;;;1.23;0.90;;;;;;;6.78;59.97;94360.56;5021026;28;20119;-75
2023/11/12 02:28:29;;;;;;;1.50;1.00;;;;;;;6.75;59.81;94355.94;5024841;28;20465;-75
2023/11/12 02:30:55;;;;;;;1.95;0.98;;;;;;;6.77;59.66;94366.47;5018132;28;20555;-75
2023/11/12 02:33:26;;;;;;;1.52;0.95;;;;;;;6.77;59.72;94369.22;5036875;28;20464;-75
2023/11/12 02:35:53;;;;;;;1.55;0.90;;;;;;;6.77;60.07;94356.31;5014968;28;20503;-75
2023/11/12 02:38:19;;;;;;;1.50;1.15;;;;;;;6.74;60.04;94376.28;5011340;28;20029;-75
2023/11/12 02:40:46;;;;;;;3.40;1.48;;;;;;;6.63;60.46;94373.78;5026002;28;20487;-76
2023/11/12 02:43:11;;;;;;;2.58;1.60;;;;;;;6.54;60.96;94379.06;5022427;28;20441;-75
2023/11/12 02:45:37;;;;;;;1.92;1.23;;;;;;;6.53;60.98;94372.06;5023153;28;20095;-75
2023/11/12 02:48:02;;;;;;;2.33;1.70;;;;;;;6.62;61.01;94372.25;5018596;28;20051;-75
2023/11/12 02:50:32;;;;;;;2.50;1.50;;;;;;;6.58;60.89;94373.50;5021156;28;20064;-76
2023/11/12 02:53:03;;;;;;;2.78;1.67;;;;;;;6.53;61.40;94366.59;5040514;28;20033;-75
2023/11/12 02:55:29;;;;;;;2.95;2.03;;;;;;;6.52;61.35;94362.31;5011742;28;20080;-76
2023/11/12 02:57:54;;;;;;;2.72;1.80;;;;;;;6.56;61.42;94365.00;5026259;28;20034;-75
2023/11/12 03:00:20;;;;;;;3.10;2.00;;;;;;;6.48;61.57;94372.56;5025979;28;20026;-77
2023/11/12 03:02:46;;;;;;;2.67;1.88;;;;;;;6.52;61.69;94369.75;5007068;28;20884;-77
2023/11/12 03:05:14;;;;;;;3.78;2.20;;;;;;;6.39;62.11;94375.88;5010114;28;20428;-77
2023/11/12 03:07:42;;;;;;;3.08;1.95;;;;;;;6.38;62.12;94376.31;5042768;28;20029;-75
2023/11/12 03:10:11;;;;;;;2.97;1.90;;;;;;;6.32;62.39;94381.50;5026656;28;20190;-77
2023/11/12 03:12:39;;;;;;;3.10;2.08;;;;;;;6.27;62.97;94392.13;5013671;28;20449;-76
2023/11/12 03:15:06;;;;;;;3.65;2.30;;;;;;;6.29;62.50;94390.50;5040073;28;20048;-77
2023/11/12 03:17:33;;;;;;;6.70;1.90;;;;;;;6.28;62.68;94397.16;5009446;28;20050;-76
2023/11/12 03:19:58;;;;;;;3.83;2.10;;;;;;;6.31;62.87;94401.81;5039189;28;20046;-76
2023/11/12 03:22:24;;;;;;;3.17;2.47;;;;;;;6.27;62.79;94403.81;5017461;28;20040;-76
2023/11/12 03:24:50;;;;;;;2.78;2.03;;;;;;;6.31;62.77;94411.94;5025811;28;20037;-76
2023/11/12 03:27:16;;;;;;;3.13;2.55;;;;;;;6.29;62.64;94412.34;5028142;28;20032;-75
2023/11/12 03:29:41;;;;;;;3.70;2.00;;;;;;;6.29;62.40;94422.50;5010404;28;20153;-75
2023/11/12 03:32:07;;;;;;;4.35;2.30;;;;;;;6.24;62.75;94426.50;5019921;28;20033;-77
2023/11/12 03:34:32;;;;;;;5.53;2.08;;;;;;;6.19;63.00;94418.03;5024071;28;20025;-76
2023/11/12 03:36:58;;;;;;;3.17;2.60;;;;;;;6.21;62.89;94416.44;5026828;28;20029;-76
2023/11/12 03:39:23;;;;;;;2.70;2.10;;;;;;;6.18;62.99;94420.00;5043144;28;20029;-76
2023/11/12 03:41:48;;;;;;;3.95;2.30;;;;;;;6.17;63.23;94418.47;5023978;28;20135;-76
2023/11/12 03:44:14;;;;;;;2.85;2.00;;;;;;;6.13;62.97;94417.75;5026303;28;20033;-74
2023/11/12 03:46:41;;;;;;;5.00;2.20;;;;;;;6.11;62.92;94420.91;5026928;28;20030;-75
2023/11/12 03:49:07;;;;;;;3.60;2.33;;;;;;;6.10;63.13;94422.09;5023840;28;20041;-75
2023/11/12 03:51:32;;;;;;;3.33;2.35;;;;;;;6.11;62.89;94428.31;5015729;28;20057;-74
2023/11/12 03:54:01;;;;;;;3.03;2.22;;;;;;;6.09;62.88;94430.72;5030680;28;20076;-75
2023/11/12 03:56:27;;;;;;;5.78;2.67;;;;;;;6.10;62.83;94427.56;5033174;28;20026;-75
2023/11/12 03:58:52;;;;;;;2.90;2.30;;;;;;;6.09;63.02;94420.56;5039221;28;20041;-76
2023/11/12 04:01:18;;;;;;;3.30;2.20;;;;;;;6.12;62.87;94427.91;5018995;28;20060;-76
2023/11/12 04:03:43;;;;;;;3.55;2.33;;;;;;;5.98;63.16;94428.19;5024350;28;20056;-76
2023/11/12 04:06:08;;;;;;;3.72;2.45;;;;;;;5.92;63.44;94418.97;5039293;28;20042;-76
2023/11/12 04:08:34;;;;;;;3.67;2.33;;;;;;;5.92;63.16;94423.66;5018983;28;20033;-76
2023/11/12 04:10:59;;;;;;;5.13;2.50;;;;;;;5.86;63.31;94420.59;5007300;28;20056;-76
2023/11/12 04:13:25;;;;;;;4.55;2.38;;;;;;;5.82;63.47;94425.34;5016736;28;20063;-76
2023/11/12 04:15:51;;;;;;;3.50;2.38;;;;;;;5.84;63.77;94437.38;5022603;28;20088;-76
2023/11/12 04:18:17;;;;;;;3.55;2.75;;;;;;;5.77;63.68;94431.28;5014779;28;20026;-76
2023/11/12 04:20:42;;;;;;;5.07;2.90;;;;;;;5.75;63.89;94431.72;5041271;28;20037;-76
2023/11/12 04:23:07;;;;;;;3.63;2.40;;;;;;;5.79;63.55;94424.25;5026834;28;20098;-76
2023/11/12 04:25:33;;;;;;;3.95;2.47;;;;;;;5.75;63.81;94425.47;5040441;28;20431;-75
2023/11/12 04:27:58;;;;;;;9.90;3.30;;;;;;;5.68;63.82;94429.13;5041712;28;20030;-76
2023/11/12 04:30:24;;;;;;;5.72;3.17;;;;;;;5.69;63.71;94447.00;5025829;28;20782;-75
2023/11/12 04:32:49;;;;;;;4.30;2.95;;;;;;;5.68;63.64;94440.03;5031943;28;20095;-76
2023/11/12 04:35:15;;;;;;;5.55;2.90;;;;;;;5.67;64.08;94448.59;5006687;28;20360;-76
2023/11/12 04:37:40;;;;;;;5.43;3.40;;;;;;;5.68;64.07;94447.41;5038136;28;20025;-76
2023/11/12 04:40:09;;;;;;;10.15;3.92;;;;;;;5.68;63.87;94445.47;5005619;28;20084;-76
2023/11/12 04:42:35;;;;;;;5.82;3.33;;;;;;;5.71;63.78;94450.09;5005146;28;20030;-76
2023/11/12 04:45:01;;;;;;;6.72;3.40;;;;;;;5.72;64.01;94446.16;5006848;28;20088;-76
2023/11/12 04:47:26;;;;;;;8.18;3.45;;;;;;;5.70;63.97;94447.78;5012051;28;20045;-75
2023/11/12 04:49:51;;;;;;;6.57;3.58;;;;;;;5.69;63.91;94441.56;5015995;28;20030;-76
2023/11/12 04:52:17;;;;;;;5.40;3.45;;;;;;;5.65;64.04;94446.31;5040665;28;20195;-75
2023/11/12 04:54:47;;;;;;;4.60;3.22;;;;;;;5.67;64.22;94459.50;5023176;28;20072;-76
2023/11/12 04:57:13;;;;;;;6.45;3.50;;;;;;;5.64;64.20;94450.22;5040402;28;20025;-76
2023/11/12 04:59:40;;;;;;;5.78;3.25;;;;;;;5.71;64.08;94458.28;5041119;28;20048;-76
2023/11/12 05:02:06;;;;;;;6.95;3.35;;;;;;;5.66;64.14;94456.00;5016328;28;20071;-76
2023/11/12 05:04:31;;;;;;;6.18;3.67;;;;;;;5.68;64.22;94459.13;5007214;28;20049;-76
2023/11/12 05:06:57;;;;;;;5.45;3.58;;;;;;;5.68;64.21;94456.38;5006711;28;20488;-76
2023/11/12 05:09:22;;;;;;;8.27;4.70;;;;;;;5.71;64.22;94461.00;5005731;28;20558;-76
2023/11/12 05:11:47;;;;;;;5.63;4.13;;;;;;;5.72;64.01;94440.72;5006498;28;20116;-76
2023/11/12 05:14:14;;;;;;;8.30;4.07;;;;;;;5.77;63.98;94462.06;5018504;28;20139;-76
2023/11/12 05:16:42;;;;;;;6.78;4.20;;;;;;;5.76;63.99;94467.94;5019623;28;20026;-76
2023/11/12 05:19:07;;;;;;;7.82;4.95;;;;;;;5.79;64.08;94473.34;5010022;28;20425;-76
2023/11/12 05:21:33;;;;;;;5.32;3.67;;;;;;;5.73;64.49;94469.53;5022396;28;20121;-76
2023/11/12 05:23:58;;;;;;;7.50;4.30;;;;;;;5.81;64.27;94476.41;5021684;28;20035;-76
2023/11/12 05:26:24;;;;;;;7.22;4.40;;;;;;;5.80;64.32;94474.09;5009341;28;20042;-76
2023/11/12 05:28:49;;;;;;;8.52;5.82;;;;;;;5.84;64.19;94474.78;5040932;28;20044;-76
2023/11/12 05:31:15;;;;;;;7.32;5.07;;;;;;;5.88;64.11;94496.56;5024807;28;20025;-76
2023/11/12 05:33:41;;;;;;;5.47;3.80;;;;;;;5.86;63.94;94484.13;5012187;28;20033;-75
2023/11/12 05:36:08;;;;;;;5.38;3.55;;;;;;;5.92;63.59;94491.84;5006643;28;20026;-76
2023/11/12 05:38:34;;;;;;;5.25;3.75;;;;;;;5.93;63.84;94499.59;5036329;28;20029;-75
2023/11/12 05:41:00;;;;;;;4.57;3.40;;;;;;;5.93;63.77;94501.56;5020849;28;20033;-75
2023/11/12 05:43:26;;;;;;;6.28;4.20;;;;;;;5.91;63.54;94510.19;5012500;28;20091;-75
2023/11/12 05:45:51;;;;;;;6.53;3.80;;;;;;;5.95;63.55;94510.09;5019440;28;20018;-75
2023/11/12 05:48:16;;;;;;;8.90;4.30;;;;;;;5.96;63.57;94519.81;5022765;28;20024;-75
2023/11/12 05:50:42;;;;;;;6.53;4.00;;;;;;;6.06;63.27;94514.19;5015187;28;20022;-75
2023/11/12 05:53:07;;;;;;;8.25;4.05;;;;;;;6.07;63.26;94520.41;5015766;28;20534;-76
2023/11/12 05:55:33;;;;;;;6.10;3.53;;;;;;;6.07;62.78;94534.81;5043392;28;20052;-76
2023/11/12 05:57:58;;;;;;;4.68;3.28;;;;;;;6.07;62.69;94531.31;5025081;28;20068;-75
2023/11/12 06:00:24;;;;;;;6.35;3.90;;;;;;;6.13;62.69;94527.69;5021312;28;20040;-76
2023/11/12 06:02:49;;;;;;;9.23;4.25;;;;;;;6.13;62.53;94549.50;5019976;28;20053;-75
2023/11/12 06:05:15;;;;;;;5.50;3.90;;;;;;;6.27;62.28;94551.22;5014558;28;20128;-75
2023/11/12 06:07:41;;;;;;;7.35;4.40;;;;;;;6.30;62.30;94560.53;5024029;28;20084;-75
2023/11/12 06:10:06;;;;;;;8.38;4.72;;;;;;;6.32;62.25;94558.94;5009270;28;20104;-75
2023/11/12 06:12:32;;;;;;;7.60;4.82;;;;;;;6.37;62.35;94563.94;5028530;28;20037;-75
2023/11/12 06:14:58;;;;;;;6.20;4.60;;;;;;;6.43;62.58;94574.38;5023006;28;20037;-76
2023/11/12 06:17:24;;;;;;;6.45;4.25;;;;;;;6.49;62.14;94568.00;5043779;28;20468;-75
2023/11/12 06:19:51;;;;;;;6.05;3.55;;;;;;;6.53;61.81;94556.97;5029416;28;20482;-75
2023/11/12 06:22:17;;;;;;;5.78;4.32;;;;;;;6.64;61.66;94568.47;5014503;28;20101;-75
2023/11/12 06:24:42;;;;;;;7.45;4.00;;;;;;;6.72;62.02;94569.13;5023562;28;20045;-75
2023/11/12 06:27:07;;;;;;;7.95;3.78;;;;;;;6.81;61.80;94578.28;5052461;28;20037;-75
2023/11/12 06:29:35;;;;;;;6.28;3.40;;;;;;;6.88;61.13;94571.91;5029033;28;20033;-75
2023/11/12 06:32:01;;;;;;;6.72;3.90;;;;;;;6.95;60.79;94587.41;5015252;28;20080;-75
2023/11/12 06:34:26;;;;;;;7.50;4.03;;;;;;;7.09;60.49;94592.56;5043695;28;20038;-75
2023/11/12 06:36:51;;;;;;;6.63;4.25;;;;;;;7.18;60.15;94585.34;5024771;28;20136;-76
2023/11/12 06:39:20;;;;;;;7.97;4.55;;;;;;;7.22;60.24;94587.22;5038230;28;20496;-75
2023/11/12 06:41:45;;;;;;;8.52;4.35;;;;;;;7.18;60.43;94587.31;5025858;28;20681;-76
2023/11/12 06:44:11;;;;;;;6.22;4.50;;;;;;;7.36;60.24;94617.00;5026838;28;20095;-76
2023/11/12 06:46:37;;;;;;;9.02;5.45;;;;;;;7.43;60.25;94611.38;5024393;28;20129;-77
2023/11/12 06:49:03;;;;;;;19.15;11.60;;;;;;;7.44;59.79;94602.72;5023178;28;20113;-76
2023/11/12 06:51:29;;;;;;;17.17;13.95;;;;;;;7.55;59.23;94607.19;5009727;28;20045;-76
2023/11/12 06:53:55;;;;;;;17.35;14.98;;;;;;;7.59;59.29;94614.13;5042343;28;20039;-76
2023/11/12 06:56:20;;;;;;;20.40;14.50;;;;;;;7.63;59.36;94612.09;5025378;28;20025;-76
2023/11/12 06:58:48;;;;;;;18.58;13.50;;;;;;;7.69;59.12;94609.63;5028974;28;20065;-78
2023/11/12 07:01:13;;;;;;;17.35;13.18;;;;;;;7.78;58.91;94626.22;5039083;28;20029;-76
2023/11/12 07:03:39;;;;;;;20.95;15.30;;;;;;;7.91;58.98;94618.09;5040175;28;20396;-76
2023/11/12 07:06:05;;;;;;;25.98;17.25;;;;;;;7.99;58.70;94636.66;5039188;28;20074;-75
2023/11/12 07:08:30;;;;;;;26.75;19.55;;;;;;;7.97;58.85;94635.53;5027836;28;20108;-76
2023/11/12 07:10:57;;;;;;;26.92;18.05;;;;;;;7.99;58.67;94628.44;5013328;28;20030;-77
2023/11/12 07:13:22;;;;;;;20.25;16.58;;;;;;;8.03;58.29;94633.84;5009537;28;20034;-76
2023/11/12 07:15:48;;;;;;;22.20;15.85;;;;;;;8.06;58.27;94632.22;5008382;28;20032;-76
2023/11/12 07:18:13;;;;;;;19.83;16.35;;;;;;;8.10;58.37;94630.19;5022507;28;20041;-76
2023/11/12 07:20:39;;;;;;;22.85;17.20;;;;;;;8.15;58.17;94626.94;5038227;28;20467;-76
2023/11/12 07:23:05;;;;;;;18.00;12.70;;;;;;;8.19;57.82;94631.09;5008960;28;20038;-76
2023/11/12 07:25:31;;;;;;;17.23;11.88;;;;;;;8.22;58.02;94638.47;5016112;28;20041;-77
2023/11/12 07:27:56;;;;;;;15.60;12.30;;;;;;;8.27;58.09;94655.59;5007930;28;20412;-76
2023/11/12 07:30:22;;;;;;;16.00;11.88;;;;;;;8.24;57.91;94647.00;5043071;28;20512;-76
2023/11/12 07:32:47;;;;;;;15.02;11.30;;;;;;;8.32;57.81;94628.44;5022571;28;20065;-76
2023/11/12 07:35:13;;;;;;;13.57;10.98;;;;;;;8.46;58.12;94630.84;5024535;28;20113;-76
2023/11/12 07:37:41;;;;;;;16.90;11.85;;;;;;;8.45;58.23;94647.72;5017724;28;20456;-77
2023/11/12 07:40:10;;;;;;;19.10;12.40;;;;;;;8.47;58.41;94634.34;5011540;28;20454;-76
2023/11/12 07:42:39;;;;;;;22.70;15.60;;;;;;;8.47;58.20;94626.13;5023787;28;20464;-76
2023/11/12 07:45:09;;;;;;;26.48;20.15;;;;;;;8.47;58.23;94637.88;5023658;28;20088;-77
2023/11/12 07:47:41;;;;;;;25.52;20.48;;;;;;;8.47;58.19;94642.56;5022859;28;20029;-77
2023/11/12 07:50:07;;;;;;;24.90;18.83;;;;;;;8.50;58.37;94644.47;5033852;28;20049;-76
2023/11/12 07:52:32;;;;;;;25.33;19.17;;;;;;;8.46;58.69;94635.56;5010281;28;20034;-77
2023/11/12 07:54:58;;;;;;;20.95;15.15;;;;;;;8.49;59.05;94637.44;5008831;28;20041;-76
2023/11/12 07:57:24;;;;;;;19.80;13.32;;;;;;;8.55;59.07;94635.72;5017344;28;20112;-77
2023/11/12 07:59:49;;;;;;;20.45;13.35;;;;;;;8.56;59.10;94639.25;5014847;28;20080;-77
2023/11/12 08:02:14;;;;;;;19.38;12.63;;;;;;;8.57;59.19;94636.06;5007036;28;20033;-77
2023/11/12 08:04:40;;;;;;;13.57;10.75;;;;;;;8.59;59.38;94644.59;5007477;28;20030;-76
2023/11/12 08:07:05;;;;;;;15.90;11.18;;;;;;;8.58;59.31;94640.34;5009131;28;20060;-77
2023/11/12 08:09:32;;;;;;;16.50;9.52;;;;;;;8.63;59.41;94636.31;5037854;28;20021;-76
2023/11/12 08:11:57;;;;;;;17.40;10.10;;;;;;;8.62;59.25;94626.56;5029061;28;20419;-77
2023/11/12 08:14:24;;;;;;;14.88;9.95;;;;;;;8.67;59.08;94654.19;5051516;28;20540;-75
2023/11/12 08:16:50;;;;;;;16.92;10.15;;;;;;;8.72;58.64;94648.19;5042273;28;20112;-77
2023/11/12 08:19:15;;;;;;;13.25;9.60;;;;;;;8.75;58.34;94652.03;5009442;28;20141;-77
2023/11/12 08:21:41;;;;;;;20.85;9.85;;;;;;;8.77;58.08;94658.63;5019498;28;20033;-77
2023/11/12 08:24:07;;;;;;;13.98;9.88;;;;;;;8.84;57.98;94662.41;5022532;28;20022;-77
2023/11/12 08:26:38;;;;;;;15.50;9.63;;;;;;;8.90;57.72;94663.41;5038997;28;20065;-77
2023/11/12 08:29:06;;;;;;;15.10;8.70;;;;;;;8.87;57.94;94665.03;5010769;28;20044;-77
2023/11/12 08:31:33;;;;;;;14.02;9.63;;;;;;;8.89;57.90;94664.59;5013736;28;20464;-77
2023/11/12 08:33:58;;;;;;;16.65;9.75;;;;;;;8.93;57.95;94671.50;5009734;28;20135;-77
2023/11/12 08:36:23;;;;;;;14.77;9.55;;;;;;;8.93;57.92;94660.56;5006524;28;20101;-77
2023/11/12 08:38:49;;;;;;;21.35;10.93;;;;;;;8.94;57.97;94658.56;5021532;28;20449;-79
2023/11/12 08:41:14;;;;;;;13.98;10.20;;;;;;;9.01;58.02;94647.44;5020050;28;20029;-76
2023/11/12 08:43:44;;;;;;;12.70;9.18;;;;;;;9.02;57.78;94649.75;5039595;28;20025;-78
2023/11/12 08:46:09;;;;;;;17.55;9.75;;;;;;;9.12;57.50;94652.59;5025873;28;20530;-77
2023/11/12 08:48:35;;;;;;;15.27;9.60;;;;;;;9.13;57.29;94646.72;5014804;28;20029;-78
2023/11/12 08:51:01;;;;;;;14.40;9.77;;;;;;;9.12;57.45;94644.38;5024675;28;20033;-77
2023/11/12 08:53:27;;;;;;;16.00;9.85;;;;;;;9.15;57.67;94655.25;5039349;28;20448;-77
2023/11/12 08:55:52;;;;;;;19.88;10.10;;;;;;;9.15;57.57;94647.03;5008663;28;20033;-77
2023/11/12 08:58:20;;;;;;;16.38;9.07;;;;;;;9.22;56.83;94638.59;5037670;28;20030;-77
2023/11/12 09:00:45;;;;;;;15.82;9.45;;;;;;;9.27;56.95;94649.03;5006992;28;20038;-77
2023/11/12 09:03:11;;;;;;;15.15;10.30;;;;;;;9.30;56.85;94653.66;5012542;28;20452;-77
2023/11/12 09:05:36;;;;;;;17.88;9.95;;;;;;;9.33;56.74;94657.50;5041480;28;20107;-77
2023/11/12 09:08:02;;;;;;;19.02;11.93;;;;;;;9.37;57.01;94658.19;5023239;28;20500;-77
2023/11/12 09:10:27;;;;;;;18.73;11.68;;;;;;;9.39;56.88;94655.00;5008425;28;20021;-77
2023/11/12 09:12:52;;;;;;;23.63;11.93;;;;;;;9.43;56.79;94653.69;5035477;28;20489;-77
2023/11/12 09:15:18;;;;;;;20.25;12.25;;;;;;;9.48;56.57;94652.38;5042231;28;20108;-77
2023/11/12 09:17:43;;;;;;;27.25;13.52;;;;;;;9.55;56.68;94644.69;5022564;28;20029;-78
2023/11/12 09:20:13;;;;;;;19.45;12.52;;;;;;;9.60;56.26;94648.88;5044904;28;20060;-77
2023/11/12 09:22:40;;;;;;;20.42;12.30;;;;;;;9.60;56.18;94653.59;5031588;28;20037;-77
2023/11/12 09:25:06;;;;;;;18.77;13.32;;;;;;;9.63;56.34;94645.25;5025516;28;20029;-77
2023/11/12 09:27:31;;;;;;;24.13;15.02;;;;;;;9.71;56.04;94643.84;5041130;28;20095;-77
2023/11/12 09:29:57;;;;;;;23.27;14.43;;;;;;;9.76;55.78;94651.53;5026227;28;20025;-77
2023/11/12 09:32:22;;;;;;;19.00;13.00;;;;;;;9.79;55.45;94639.66;5025236;28;20033;-76
2023/11/12 09:34:48;;;;;;;17.00;12.13;;;;;;;9.80;55.36;94637.69;5040558;28;20017;-77
2023/11/12 09:37:13;;;;;;;16.92;12.05;;;;;;;9.85;55.65;94628.91;5045004;28;20487;-74
2023/11/12 09:39:39;;;;;;;17.23;10.73;;;;;;;9.86;55.06;94630.44;5046089;28;20032;-78
2023/11/12 09:42:05;;;;;;;14.75;9.73;;;;;;;9.86;55.25;94633.19;5027249;28;20030;-77
2023/11/12 09:44:32;;;;;;;13.77;10.25;;;;;;;9.87;55.19;94625.75;5041192;28;20052;-77
2023/11/12 09:47:21;;;;;;;15.00;11.20;;;;;;;9.93;55.10;94622.00;5040215;28;20476;-77
2023/11/12 09:49:47;;;;;;;16.10;11.15;;;;;;;9.92;55.17;94614.19;5024329;28;20022;-77
2023/11/12 09:52:12;;;;;;;14.05;10.90;;;;;;;9.97;55.18;94627.38;5041100;28;20136;-77
2023/11/12 09:54:39;;;;;;;17.75;11.95;;;;;;;9.96;55.20;94623.84;5040285;28;20504;-77
2023/11/12 09:57:06;;;;;;;15.35;11.60;;;;;;;9.99;55.48;94630.47;5040818;28;20091;-76
2023/11/12 09:59:32;;;;;;;15.90;11.43;;;;;;;10.08;55.48;94625.06;5025290;28;20045;-77
2023/11/12 10:01:57;;;;;;;17.13;11.60;;;;;;;10.05;55.59;94623.19;5041089;28;20069;-77
2023/11/12 10:04:26;;;;;;;17.25;12.75;;;;;;;10.08;55.64;94638.78;5023950;28;20499;-77
2023/11/12 10:06:52;;;;;;;21.63;12.60;;;;;;;10.03;55.66;94640.09;5040439;28;20026;-77
2023/11/12 10:09:28;;;;;;;21.55;12.77;;;;;;;10.02;55.56;94641.31;5041204;28;20025;-77
2023/11/12 10:11:57;;;;;;;18.40;13.43;;;;;;;10.02;55.45;94635.81;5039805;28;20558;-78
2023/11/12 10:14:23;;;;;;;17.85;13.25;;;;;;;9.99;55.51;94619.47;5023982;28;20026;-77
2023/11/12 10:17:04;;;;;;;19.35;14.27;;;;;;;9.95;55.54;94627.06;5040269;28;20052;-77
2023/11/12 10:19:30;;;;;;;22.38;14.77;;;;;;;10.02;55.62;94635.06;5024767;28;20084;-77
2023/11/12 10:21:58;;;;;;;22.67;14.75;;;;;;;10.00;55.67;94640.22;5024173;28;20021;-77
2023/11/12 10:24:24;;;;;;;26.40;15.13;;;;;;;10.02;55.63;94644.06;5023134;28;20025;-77
2023/11/12 10:26:53;;;;;;;19.23;13.88;;;;;;;10.07;55.75;94648.25;5041278;28;20091;-77
2023/11/12 10:29:22;;;;;;;18.80;12.15;;;;;;;10.00;55.64;94646.50;5023651;28;20380;-78
2023/11/12 10:31:48;;;;;;;18.25;12.30;;;;;;;9.98;55.86;94648.16;5024126;28;20021;-76
2023/11/12 10:34:16;;;;;;;19.63;13.70;;;;;;;9.97;56.05;94655.59;5023668;28;20025;-75
2023/11/12 10:37:13;;;;;;;20.88;13.80;;;;;;;9.99;56.46;94663.41;5023953;28;20026;-75
2023/11/12 10:39:43;;;;;;;21.23;14.15;;;;;;;10.09;56.90;94660.34;5025103;28;20033;-76
2023/11/12 10:42:24;;;;;;;22.15;15.40;;;;;;;10.11;57.17;94668.91;5037998;28;20022;-77
2023/11/12 10:44:55;;;;;;;18.20;12.93;;;;;;;10.14;56.92;94661.75;5020470;28;20044;-88
2023/11/12 10:47:26;;;;;;;17.20;13.40;;;;;;;10.23;56.93;94675.63;5016921;28;20022;-75
2023/11/12 10:49:51;;;;;;;17.92;12.40;;;;;;;10.24;57.54;94665.41;5039727;28;20475;-75
2023/11/12 10:52:18;;;;;;;18.60;11.85;;;;;;;10.30;57.63;94669.13;5014392;28;20026;-74
2023/11/12 10:54:45;;;;;;;16.58;13.27;;;;;;;10.43;57.02;94666.34;5039473;28;20108;-77
2023/11/12 10:57:11;;;;;;;16.95;13.35;;;;;;;10.43;56.33;94669.09;5020867;28;20022;-77
2023/11/12 10:59:39;;;;;;;18.75;15.68;;;;;;;10.37;56.73;94666.91;5025767;28;20029;-79
2023/11/12 11:02:09;;;;;;;18.23;14.00;;;;;;;10.30;56.57;94667.16;5025476;28;20025;-79
2023/11/12 11:04:34;;;;;;;20.70;14.13;;;;;;;10.36;56.43;94676.38;5040008;28;20066;-78
2023/11/12 11:06:59;;;;;;;27.45;17.77;;;;;;;10.63;55.76;94667.66;5040306;28;20547;-75
2023/11/12 11:09:27;;;;;;;23.25;15.35;;;;;;;11.62;53.77;94651.59;5043212;28;20084;-76
2023/11/12 11:11:53;;;;;;;20.00;13.98;;;;;;;12.32;52.64;94652.06;5023098;28;20033;-77
2023/11/12 11:14:23;;;;;;;14.40;10.43;;;;;;;11.78;52.54;94663.59;5015175;28;20523;-77
2023/11/12 11:16:51;;;;;;;11.45;7.70;;;;;;;11.55;51.52;94657.34;5008966;28;20022;-76
2023/11/12 11:19:18;;;;;;;11.68;8.60;;;;;;;11.48;50.80;94665.13;5010224;28;20026;-80
2023/11/12 11:22:21;;;;;;;9.95;8.40;;;;;;;11.46;50.94;94667.53;5052960;28;20028;-76
2023/11/12 11:24:46;;;;;;;12.20;9.38;;;;;;;11.29;50.94;94664.97;5028197;28;20045;-80
2023/11/12 11:27:12;;;;;;;13.40;9.43;;;;;;;11.20;51.11;94658.66;5019496;28;20053;-81
2023/11/12 11:30:11;;;;;;;11.95;9.38;;;;;;;11.07;51.82;94664.22;5042526;28;20025;-80